Terminal Aerodrome Forecast
Issued by NWS Grand Forks, ND

Home | Current Version | Previous Version | Graphics & Text | Print | Product List | Glossary On
Versions: 1 2 3 4 5 6 7 8 9 10 11 12 13 14
000
FTUS43 KFGF 191100
TAFFAR
TAF
KFAR 191120Z 1912/2012 16010KT 4SM BR OVC006
      TEMPO 1912/1915 2SM BR
     FM191800 16010KT P6SM OVC012=

USA.gov is the U.S. government's official web portal to all federal, state and local government web resources and services.